GSIXT LIRQ-LIQS
Flight info
| Callsign | GSIXT |
|---|---|
| Flight time | 0h 29m |
| Altitude | 4500 |
| Route | DCT |
| Aircraft | P28A/L-V/N |
Departure
| Time | 2026-05-08 18:57 |
|---|---|
| Airport | Florence Airport, Peretola (LIRQ) |
Arrival
| Time | 2026-05-08 19:26 |
|---|---|
| Airport | Siena-Ampugnano Airport (LIQS) |
| Time | Latitude | Longitude | Altitude | Speed | Heading |
|---|---|---|---|---|---|
| 2026-05-08 18:53 | 43.80710 | 11.19494 | 124 ft | 0 kts | 256° |
| 2026-05-08 18:54 | 43.80723 | 11.19477 | 123 ft | 7 kts | 18° |
| 2026-05-08 18:54 | 43.80720 | 11.19547 | 124 ft | 10 kts | 92° |
| 2026-05-08 18:54 | 43.80660 | 11.19644 | 120 ft | 15 kts | 140° |
| 2026-05-08 18:54 | 43.80653 | 11.19653 | 120 ft | 0 kts | 135° |
| 2026-05-08 18:55 | 43.80567 | 11.19774 | 115 ft | 17 kts | 104° |
| 2026-05-08 18:55 | 43.80614 | 11.19905 | 117 ft | 15 kts | 49° |
| 2026-05-08 18:55 | 43.80703 | 11.20043 | 118 ft | 29 kts | 48° |
| 2026-05-08 18:56 | 43.80938 | 11.20408 | 122 ft | 72 kts | 48° |
| 2026-05-08 18:56 | 43.81271 | 11.20914 | 323 ft | 68 kts | 44° |
| 2026-05-08 18:56 | 43.81578 | 11.21404 | 523 ft | 67 kts | 49° |
| 2026-05-08 18:56 | 43.81918 | 11.21854 | 730 ft | 71 kts | 27° |
| 2026-05-08 18:57 | 43.82406 | 11.21837 | 959 ft | 73 kts | 339° |
| 2026-05-08 18:57 | 43.82685 | 11.21567 | 1107 ft | 76 kts | 320° |
| 2026-05-08 18:57 | 43.83195 | 11.20861 | 1394 ft | 77 kts | 316° |
| 2026-05-08 18:57 | 43.83573 | 11.20336 | 1614 ft | 77 kts | 309° |
| 2026-05-08 18:58 | 43.83650 | 11.19626 | 1826 ft | 78 kts | 245° |
| 2026-05-08 18:58 | 43.83305 | 11.19063 | 2053 ft | 75 kts | 223° |
| 2026-05-08 18:58 | 43.82930 | 11.18514 | 2239 ft | 79 kts | 224° |
| 2026-05-08 18:58 | 43.82528 | 11.18002 | 2452 ft | 78 kts | 207° |
| 2026-05-08 18:59 | 43.82047 | 11.18057 | 2674 ft | 73 kts | 140° |
| 2026-05-08 18:59 | 43.81787 | 11.18656 | 2846 ft | 75 kts | 115° |
| 2026-05-08 18:59 | 43.81507 | 11.19276 | 3021 ft | 78 kts | 127° |
| 2026-05-08 18:59 | 43.81190 | 11.19894 | 3206 ft | 79 kts | 121° |
| 2026-05-08 19:00 | 43.80956 | 11.20292 | 3327 ft | 80 kts | 131° |
| 2026-05-08 19:00 | 43.80394 | 11.20948 | 3570 ft | 81 kts | 154° |
| 2026-05-08 19:00 | 43.79848 | 11.21093 | 3759 ft | 81 kts | 174° |
| 2026-05-08 19:00 | 43.79291 | 11.21172 | 3946 ft | 80 kts | 173° |
| 2026-05-08 19:01 | 43.78739 | 11.21275 | 4126 ft | 81 kts | 167° |
| 2026-05-08 19:01 | 43.78187 | 11.21461 | 4301 ft | 82 kts | 166° |
| 2026-05-08 19:01 | 43.77638 | 11.21680 | 4472 ft | 84 kts | 162° |
| 2026-05-08 19:01 | 43.77034 | 11.21960 | 4519 ft | 99 kts | 161° |
| 2026-05-08 19:02 | 43.76358 | 11.22273 | 4527 ft | 105 kts | 164° |
| 2026-05-08 19:02 | 43.75630 | 11.22525 | 4525 ft | 110 kts | 167° |
| 2026-05-08 19:02 | 43.75134 | 11.22673 | 4521 ft | 111 kts | 169° |
| 2026-05-08 19:02 | 43.74120 | 11.22951 | 4523 ft | 111 kts | 165° |
| 2026-05-08 19:03 | 43.73632 | 11.23174 | 4534 ft | 111 kts | 160° |
| 2026-05-08 19:03 | 43.72914 | 11.23587 | 4533 ft | 112 kts | 158° |
| 2026-05-08 19:03 | 43.72185 | 11.23974 | 4537 ft | 112 kts | 161° |
| 2026-05-08 19:03 | 43.71434 | 11.24282 | 4529 ft | 112 kts | 164° |
| 2026-05-08 19:04 | 43.70678 | 11.24574 | 4512 ft | 114 kts | 166° |
| 2026-05-08 19:04 | 43.69905 | 11.24821 | 4515 ft | 113 kts | 168° |
| 2026-05-08 19:04 | 43.69154 | 11.25081 | 4500 ft | 113 kts | 166° |
| 2026-05-08 19:04 | 43.68396 | 11.25378 | 4497 ft | 113 kts | 163° |
| 2026-05-08 19:05 | 43.67621 | 11.25536 | 4479 ft | 113 kts | 178° |
| 2026-05-08 19:05 | 43.66836 | 11.25604 | 4474 ft | 113 kts | 174° |
| 2026-05-08 19:05 | 43.66055 | 11.25741 | 4462 ft | 113 kts | 173° |
| 2026-05-08 19:05 | 43.65279 | 11.25892 | 4460 ft | 113 kts | 171° |
| 2026-05-08 19:06 | 43.64503 | 11.26046 | 4448 ft | 113 kts | 173° |
| 2026-05-08 19:06 | 43.63718 | 11.26112 | 4439 ft | 113 kts | 180° |
| 2026-05-08 19:06 | 43.62930 | 11.26147 | 4427 ft | 113 kts | 177° |
| 2026-05-08 19:06 | 43.62144 | 11.26221 | 4423 ft | 113 kts | 173° |
| 2026-05-08 19:07 | 43.61368 | 11.26364 | 4423 ft | 112 kts | 172° |
| 2026-05-08 19:07 | 43.60593 | 11.26522 | 4436 ft | 111 kts | 171° |
| 2026-05-08 19:07 | 43.59844 | 11.26692 | 4461 ft | 110 kts | 171° |
| 2026-05-08 19:07 | 43.59087 | 11.26826 | 4484 ft | 110 kts | 173° |
| 2026-05-08 19:08 | 43.58327 | 11.26902 | 4497 ft | 110 kts | 176° |
| 2026-05-08 19:08 | 43.57554 | 11.26995 | 4478 ft | 112 kts | 173° |
| 2026-05-08 19:08 | 43.56784 | 11.27135 | 4490 ft | 111 kts | 171° |
| 2026-05-08 19:08 | 43.56019 | 11.27229 | 4507 ft | 111 kts | 177° |
| 2026-05-08 19:09 | 43.55252 | 11.27293 | 4518 ft | 110 kts | 175° |
| 2026-05-08 19:09 | 43.54491 | 11.27406 | 4534 ft | 110 kts | 173° |
| 2026-05-08 19:09 | 43.53731 | 11.27532 | 4537 ft | 110 kts | 173° |
| 2026-05-08 19:09 | 43.52969 | 11.27662 | 4555 ft | 110 kts | 172° |
| 2026-05-08 19:10 | 43.52212 | 11.27816 | 4561 ft | 110 kts | 171° |
| 2026-05-08 19:10 | 43.51445 | 11.27890 | 4550 ft | 112 kts | 178° |
| 2026-05-08 19:10 | 43.50660 | 11.27939 | 4541 ft | 113 kts | 175° |
| 2026-05-08 19:10 | 43.49883 | 11.28067 | 4546 ft | 112 kts | 172° |
| 2026-05-08 19:11 | 43.49110 | 11.28206 | 4543 ft | 112 kts | 172° |
| 2026-05-08 19:11 | 43.48340 | 11.28335 | 4558 ft | 111 kts | 173° |
| 2026-05-08 19:11 | 43.47573 | 11.28442 | 4559 ft | 111 kts | 174° |
| 2026-05-08 19:11 | 43.46813 | 11.28555 | 4571 ft | 110 kts | 168° |
| 2026-05-08 19:12 | 43.46063 | 11.28798 | 4562 ft | 110 kts | 166° |
| 2026-05-08 19:12 | 43.45318 | 11.29027 | 4566 ft | 110 kts | 166° |
| 2026-05-08 19:12 | 43.44572 | 11.29268 | 4578 ft | 110 kts | 165° |
| 2026-05-08 19:12 | 43.43820 | 11.29503 | 4561 ft | 111 kts | 167° |
| 2026-05-08 19:13 | 43.43063 | 11.29721 | 4564 ft | 111 kts | 166° |
| 2026-05-08 19:13 | 43.42307 | 11.29960 | 4538 ft | 112 kts | 165° |
| 2026-05-08 19:13 | 43.41549 | 11.30207 | 4530 ft | 112 kts | 164° |
| 2026-05-08 19:13 | 43.40806 | 11.30501 | 4524 ft | 111 kts | 161° |
| 2026-05-08 19:14 | 43.40068 | 11.30842 | 4530 ft | 111 kts | 163° |
| 2026-05-08 19:14 | 43.39302 | 11.31015 | 4502 ft | 113 kts | 172° |
| 2026-05-08 19:14 | 43.38554 | 11.31144 | 4449 ft | 105 kts | 168° |
| 2026-05-08 19:14 | 43.37842 | 11.31343 | 4260 ft | 105 kts | 166° |
| 2026-05-08 19:15 | 43.37138 | 11.31576 | 4080 ft | 103 kts | 163° |
| 2026-05-08 19:15 | 43.36439 | 11.31829 | 3901 ft | 104 kts | 164° |
| 2026-05-08 19:15 | 43.35727 | 11.32040 | 3699 ft | 105 kts | 165° |
| 2026-05-08 19:15 | 43.35023 | 11.32258 | 3519 ft | 103 kts | 164° |
| 2026-05-08 19:16 | 43.34327 | 11.32491 | 3347 ft | 102 kts | 164° |
| 2026-05-08 19:16 | 43.33636 | 11.32731 | 3164 ft | 102 kts | 164° |
| 2026-05-08 19:16 | 43.32943 | 11.32948 | 3005 ft | 101 kts | 164° |
| 2026-05-08 19:16 | 43.32263 | 11.33186 | 2855 ft | 101 kts | 163° |
| 2026-05-08 19:17 | 43.31581 | 11.33013 | 2701 ft | 106 kts | 211° |
| 2026-05-08 19:17 | 43.31051 | 11.32319 | 2565 ft | 105 kts | 225° |
| 2026-05-08 19:17 | 43.30559 | 11.31568 | 2529 ft | 107 kts | 223° |
| 2026-05-08 19:17 | 43.30024 | 11.30846 | 2536 ft | 109 kts | 222° |
| 2026-05-08 19:18 | 43.29459 | 11.30117 | 2516 ft | 112 kts | 220° |
| 2026-05-08 19:18 | 43.28885 | 11.29404 | 2517 ft | 111 kts | 217° |
| 2026-05-08 19:18 | 43.28217 | 11.28896 | 2493 ft | 109 kts | 192° |
| 2026-05-08 19:18 | 43.27484 | 11.28811 | 2531 ft | 105 kts | 180° |
| 2026-05-08 19:19 | 43.26749 | 11.28773 | 2528 ft | 106 kts | 178° |
| 2026-05-08 19:19 | 43.26052 | 11.28467 | 2532 ft | 109 kts | 217° |
| 2026-05-08 19:19 | 43.25658 | 11.27565 | 2544 ft | 112 kts | 250° |
| 2026-05-08 19:19 | 43.25422 | 11.26550 | 2524 ft | 112 kts | 252° |
| 2026-05-08 19:20 | 43.25248 | 11.25545 | 2381 ft | 106 kts | 258° |
| 2026-05-08 19:20 | 43.25215 | 11.25218 | 2321 ft | 106 kts | 263° |
| 2026-05-08 19:20 | 43.25136 | 11.23543 | 2022 ft | 106 kts | 284° |
| 2026-05-08 19:20 | 43.25592 | 11.22834 | 1879 ft | 102 kts | 342° |
| 2026-05-08 19:21 | 43.26236 | 11.22984 | 1708 ft | 97 kts | 43° |
| 2026-05-08 19:21 | 43.26442 | 11.23801 | 1594 ft | 91 kts | 90° |
| 2026-05-08 19:21 | 43.26444 | 11.24674 | 1458 ft | 91 kts | 88° |
| 2026-05-08 19:21 | 43.26477 | 11.25524 | 1416 ft | 88 kts | 86° |
| 2026-05-08 19:22 | 43.26520 | 11.26353 | 1413 ft | 87 kts | 86° |
| 2026-05-08 19:22 | 43.26578 | 11.27177 | 1415 ft | 87 kts | 84° |
| 2026-05-08 19:22 | 43.26571 | 11.27993 | 1435 ft | 85 kts | 111° |
| 2026-05-08 19:22 | 43.26081 | 11.28375 | 1447 ft | 84 kts | 174° |
| 2026-05-08 19:23 | 43.25502 | 11.28346 | 1484 ft | 85 kts | 180° |
| 2026-05-08 19:23 | 43.24908 | 11.28284 | 1515 ft | 85 kts | 180° |
| 2026-05-08 19:23 | 43.24315 | 11.28229 | 1546 ft | 85 kts | 182° |
| 2026-05-08 19:23 | 43.23730 | 11.28166 | 1615 ft | 85 kts | 181° |
| 2026-05-08 19:24 | 43.23144 | 11.28165 | 1665 ft | 86 kts | 179° |
| 2026-05-08 19:24 | 43.22562 | 11.28062 | 1666 ft | 84 kts | 197° |
| 2026-05-08 19:24 | 43.22231 | 11.27441 | 1565 ft | 84 kts | 258° |
| 2026-05-08 19:24 | 43.22159 | 11.26645 | 1483 ft | 84 kts | 263° |
| 2026-05-08 19:25 | 43.22277 | 11.25926 | 1353 ft | 74 kts | 320° |
| 2026-05-08 19:25 | 43.22741 | 11.25668 | 1175 ft | 74 kts | 346° |
| 2026-05-08 19:25 | 43.23266 | 11.25604 | 1037 ft | 76 kts | 2° |
| 2026-05-08 19:25 | 43.23791 | 11.25591 | 880 ft | 75 kts | 0° |
| 2026-05-08 19:26 | 43.24296 | 11.25563 | 735 ft | 72 kts | 0° |
| 2026-05-08 19:26 | 43.24785 | 11.25540 | 631 ft | 69 kts | 359° |
| 2026-05-08 19:26 | 43.25224 | 11.25524 | 614 ft | 53 kts | 359° |
| 2026-05-08 19:26 | 43.25536 | 11.25509 | 628 ft | 40 kts | 358° |
| 2026-05-08 19:27 | 43.25801 | 11.25496 | 631 ft | 36 kts | 358° |
| 2026-05-08 19:27 | 43.26019 | 11.25473 | 636 ft | 16 kts | 304° |
| 2026-05-08 19:27 | 43.26018 | 11.25333 | 634 ft | 14 kts | 275° |
| 2026-05-08 19:27 | 43.26020 | 11.25176 | 634 ft | 18 kts | 259° |
| 2026-05-08 19:28 | 43.25932 | 11.25031 | 632 ft | 23 kts | 199° |
| 2026-05-08 19:28 | 43.25803 | 11.24991 | 630 ft | 19 kts | 199° |
| 2026-05-08 19:28 | 43.25746 | 11.24931 | 628 ft | 9 kts | 214° |
| 2026-05-08 19:28 | 43.25685 | 11.24891 | 627 ft | 11 kts | 180° |
| 2026-05-08 19:29 | 43.25673 | 11.24890 | 626 ft | 0 kts | 179° |